Terminal Aerodrome Forecast
Issued by NWS Jackson, MS

Home | Current Version | Previous Version | Text Only | Print | Product List | Glossary On
Versions: 1 2 3 4 5 6 7 8 9 10 11 12 13 14 15 16 17 18 19 20
000
FTUS44 KJAN 261120
TAFGLH
TAF
KGLH 261120Z 2612/2712 30012G21KT P6SM VCSH BKN008
     FM261400 30013G24KT P6SM BKN015
     FM261900 33012G21KT P6SM VCSH BKN025
     FM262100 34009KT P6SM FEW025 SCT250
     FM270600 32003KT 3SM BR BKN050=

USA.gov is the U.S. government's official web portal to all federal, state and local government web resources and services.